Time;durP1;ratioP1;P1;durP2;ratioP2;P2;SDS_P1;SDS_P2;PMS_P1;PMS_P2;Temp;Humidity;BMP_temperature;BMP_pressure;BME280_temperature;BME280_humidity;BME280_pressure;Samples;Min_cycle;Max_cycle;Signal;HPM_P1;HPM_P2
2023/10/01 00:01:13;;;;;;;19.55;12.43;;;12.40;99.90;;;;;;5076759;28;20034;-68
2023/10/01 00:03:39;;;;;;;17.60;12.00;;;12.40;99.90;;;;;;5076732;28;20031;-68
2023/10/01 00:06:04;;;;;;;21.52;12.75;;;12.40;99.90;;;;;;5076767;28;20401;-68
2023/10/01 00:08:30;;;;;;;17.55;11.95;;;12.40;99.90;;;;;;5076648;28;20078;-76
2023/10/01 00:10:55;;;;;;;15.63;11.10;;;12.40;99.90;;;;;;5076591;28;20089;-68
2023/10/01 00:13:21;;;;;;;16.83;11.57;;;12.40;99.90;;;;;;5075632;28;20057;-68
2023/10/01 00:15:49;;;;;;;22.35;13.10;;;12.40;99.90;;;;;;5076168;28;20056;-68
2023/10/01 00:18:15;;;;;;;18.80;13.13;;;12.40;99.90;;;;;;5076374;28;20455;-68
2023/10/01 00:20:41;;;;;;;19.83;11.90;;;12.50;99.90;;;;;;5076442;28;20024;-68
2023/10/01 00:23:07;;;;;;;18.23;11.88;;;12.50;99.90;;;;;;5076324;28;20024;-68
2023/10/01 00:25:34;;;;;;;19.95;12.98;;;12.50;99.90;;;;;;5076604;28;20032;-68
2023/10/01 00:28:03;;;;;;;17.52;12.10;;;12.50;99.90;;;;;;5076566;28;20028;-68
2023/10/01 00:30:31;;;;;;;22.95;13.15;;;12.50;99.90;;;;;;5076468;28;20029;-68
2023/10/01 00:32:58;;;;;;;16.48;12.65;;;12.60;99.90;;;;;;5076477;28;20029;-68
2023/10/01 00:35:26;;;;;;;21.27;13.98;;;12.50;99.90;;;;;;5076273;28;20027;-68
2023/10/01 00:37:52;;;;;;;18.30;12.30;;;12.60;99.90;;;;;;5076075;28;20086;-68
2023/10/01 00:40:18;;;;;;;18.55;11.70;;;12.60;99.90;;;;;;5076409;28;20078;-68
2023/10/01 00:42:45;;;;;;;17.35;12.05;;;12.60;99.90;;;;;;5076383;28;20021;-68
2023/10/01 00:45:13;;;;;;;17.65;11.70;;;12.60;99.90;;;;;;5075408;28;20030;-68
2023/10/01 00:47:42;;;;;;;18.15;12.40;;;12.60;99.90;;;;;;5075638;28;20086;-68
2023/10/01 00:50:12;;;;;;;16.95;12.05;;;12.50;99.90;;;;;;5075381;28;20094;-68
2023/10/01 00:52:39;;;;;;;22.05;12.38;;;12.50;99.90;;;;;;5075919;28;20024;-68
2023/10/01 00:55:06;;;;;;;16.83;10.75;;;12.40;99.90;;;;;;5075804;28;20031;-68
2023/10/01 00:57:32;;;;;;;15.48;11.85;;;12.30;99.90;;;;;;5075653;28;20070;-68
2023/10/01 00:59:57;;;;;;;16.33;11.20;;;12.20;99.90;;;;;;5076092;28;20028;-69
2023/10/01 01:02:23;;;;;;;18.85;12.27;;;12.10;99.90;;;;;;5075491;28;20039;-68
2023/10/01 01:05:06;;;;;;;19.30;12.63;;;12.00;99.90;;;;;;5074749;28;20025;-68
2023/10/01 01:07:36;;;;;;;18.07;10.53;;;11.90;99.90;;;;;;5075046;28;20123;-67
2023/10/01 01:10:02;;;;;;;18.77;11.57;;;11.80;99.90;;;;;;5074564;28;20262;-68
2023/10/01 01:12:29;;;;;;;17.33;10.55;;;11.70;99.90;;;;;;5075332;28;20036;-68
2023/10/01 01:14:57;;;;;;;15.85;10.77;;;11.70;99.90;;;;;;5075521;28;20469;-68
2023/10/01 01:17:24;;;;;;;18.58;11.57;;;11.60;99.90;;;;;;5074751;28;20054;-68
2023/10/01 01:19:52;;;;;;;19.25;12.68;;;11.60;99.90;;;;;;5075337;28;20458;-67
2023/10/01 01:22:28;;;;;;;22.90;12.00;;;11.50;99.90;;;;;;5074934;28;20111;-68
2023/10/01 01:24:57;;;;;;;14.18;10.52;;;11.40;99.90;;;;;;5074691;28;20040;-68
2023/10/01 01:27:23;;;;;;;16.88;10.48;;;11.40;99.90;;;;;;5075202;28;20037;-68
2023/10/01 01:29:50;;;;;;;18.27;12.02;;;11.40;99.90;;;;;;5075067;28;20541;-68
2023/10/01 01:32:16;;;;;;;21.58;11.93;;;11.40;99.90;;;;;;5074883;28;20082;-68
2023/10/01 01:34:45;;;;;;;23.55;12.95;;;11.50;99.90;;;;;;5074884;28;20535;-68
2023/10/01 01:39:57;;;;;;;18.83;12.05;;;11.60;99.90;;;;;;5074090;28;20041;-68
2023/10/01 01:42:24;;;;;;;20.67;12.40;;;11.70;99.90;;;;;;5074045;28;20062;-68
2023/10/01 01:45:15;;;;;;;19.77;12.65;;;11.80;99.90;;;;;;5074712;28;20086;-68
2023/10/01 01:47:38;;;;;;;21.23;13.38;;;11.80;99.90;;;;;;5073979;28;20056;-68
2023/10/01 01:50:17;;;;;;;19.52;13.35;;;11.90;99.90;;;;;;5074621;28;20101;-68
2023/10/01 01:52:44;;;;;;;18.90;12.52;;;11.90;99.90;;;;;;5074627;28;20032;-68
2023/10/01 01:55:23;;;;;;;23.50;14.05;;;12.00;99.90;;;;;;5074719;28;20371;-68
2023/10/01 01:58:02;;;;;;;20.95;12.60;;;12.00;99.90;;;;;;5073978;28;20017;-68
2023/10/01 02:00:31;;;;;;;19.48;12.13;;;12.10;99.90;;;;;;5074737;28;20477;-68
2023/10/01 02:02:59;;;;;;;17.42;12.30;;;12.20;99.90;;;;;;5074573;28;20021;-68
2023/10/01 02:05:28;;;;;;;17.90;12.05;;;12.20;99.90;;;;;;5074419;28;20533;-68
2023/10/01 02:07:54;;;;;;;22.55;13.95;;;12.20;99.90;;;;;;5074646;28;20039;-68
2023/10/01 02:10:20;;;;;;;17.75;12.70;;;12.30;99.90;;;;;;5074020;28;20035;-68
2023/10/01 02:12:47;;;;;;;21.23;13.70;;;12.30;99.90;;;;;;5074555;28;20025;-68
2023/10/01 02:15:14;;;;;;;21.00;13.07;;;12.40;99.90;;;;;;5074182;28;20539;-68
2023/10/01 02:17:39;;;;;;;22.52;13.68;;;12.40;99.90;;;;;;5074225;28;20017;-68
2023/10/01 02:20:12;;;;;;;21.33;13.48;;;12.40;99.90;;;;;;5074413;28;20427;-68
2023/10/01 02:22:38;;;;;;;22.53;12.73;;;12.40;99.90;;;;;;5073977;28;20024;-68
2023/10/01 02:25:06;;;;;;;19.23;13.02;;;12.50;99.90;;;;;;5074456;28;20120;-68
2023/10/01 02:27:42;;;;;;;17.90;12.63;;;12.50;99.90;;;;;;5073969;28;20474;-68
2023/10/01 02:30:12;;;;;;;18.45;12.38;;;12.50;99.90;;;;;;5073412;28;20021;-69
2023/10/01 02:32:49;;;;;;;19.25;12.35;;;12.50;99.90;;;;;;5074335;28;20031;-68
2023/10/01 02:35:48;;;;;;;21.58;13.48;;;12.50;99.90;;;;;;5074029;28;20025;-69
2023/10/01 02:38:05;;;;;;;20.30;12.45;;;12.50;99.90;;;;;;5073197;28;20032;-68
2023/10/01 02:40:37;;;;;;;22.05;13.00;;;12.50;99.90;;;;;;5074206;28;20370;-68
2023/10/01 02:43:06;;;;;;;20.67;12.50;;;12.60;99.90;;;;;;5073045;28;20062;-68
2023/10/01 02:45:32;;;;;;;19.85;12.73;;;12.60;99.90;;;;;;5073775;28;20040;-68
2023/10/01 02:48:13;;;;;;;16.40;12.40;;;12.60;99.90;;;;;;5074228;28;20033;-68
2023/10/01 02:50:42;;;;;;;21.75;13.32;;;12.70;99.90;;;;;;5073323;28;20044;-69
2023/10/01 02:53:11;;;;;;;24.70;12.95;;;12.70;99.90;;;;;;5074194;28;20585;-68
2023/10/01 02:55:44;;;;;;;18.25;12.93;;;12.70;99.90;;;;;;5073555;28;20021;-73
2023/10/01 02:58:18;;;;;;;16.25;11.77;;;12.70;99.90;;;;;;5072966;28;20021;-68
2023/10/01 03:00:44;;;;;;;21.42;12.65;;;12.70;99.90;;;;;;5073829;28;20040;-68
2023/10/01 03:03:14;;;;;;;14.73;11.55;;;12.80;99.90;;;;;;5072799;28;20032;-68
2023/10/01 03:05:42;;;;;;;21.50;12.95;;;12.80;99.90;;;;;;5074007;28;20046;-68
2023/10/01 03:08:12;;;;;;;24.73;12.60;;;12.80;99.90;;;;;;5073752;28;20094;-68
2023/10/01 03:10:38;;;;;;;16.25;11.23;;;12.80;99.90;;;;;;5073592;28;20570;-68
2023/10/01 03:13:24;;;;;;;19.85;12.20;;;12.80;99.90;;;;;;5073707;28;20028;-68
2023/10/01 03:16:39;;;;;;;18.02;12.05;;;12.80;99.90;;;;;;5072817;28;20027;-68
2023/10/01 03:18:34;;;;;;;15.80;10.50;;;12.90;99.90;;;;;;5072819;28;20032;-68
2023/10/01 03:21:07;;;;;;;17.15;10.60;;;12.90;99.90;;;;;;5073467;28;20020;-68
2023/10/01 03:23:33;;;;;;;15.57;10.18;;;12.90;99.90;;;;;;5073623;28;20068;-68
2023/10/01 03:26:08;;;;;;;15.05;10.18;;;12.90;99.90;;;;;;5073612;28;20060;-68
2023/10/01 03:31:23;;;;;;;15.18;9.20;;;13.00;99.90;;;;;;5072601;28;20447;-68
2023/10/01 03:33:53;;;;;;;17.38;9.43;;;13.10;99.90;;;;;;5075908;28;20032;-68
2023/10/01 03:36:28;;;;;;;18.48;9.90;;;13.10;99.90;;;;;;5077041;28;20497;-68
2023/10/01 03:39:06;;;;;;;15.13;8.98;;;13.10;99.90;;;;;;5077098;28;20539;-68
2023/10/01 03:41:52;;;;;;;14.15;8.50;;;13.20;99.90;;;;;;5077227;28;20489;-68
2023/10/01 03:44:40;;;;;;;13.70;8.95;;;13.30;99.90;;;;;;5075691;28;20020;-68
2023/10/01 03:47:08;;;;;;;15.68;8.70;;;13.40;99.90;;;;;;5076312;28;20398;-68
2023/10/01 03:49:37;;;;;;;13.63;8.65;;;13.40;99.90;;;;;;5076998;28;20477;-68
2023/10/01 03:52:03;;;;;;;12.73;8.10;;;13.50;99.90;;;;;;5076718;28;20043;-68
2023/10/01 03:55:25;;;;;;;15.85;8.15;;;13.60;99.90;;;;;;5076956;28;20350;-68
2023/10/01 03:57:17;;;;;;;14.38;8.05;;;13.60;99.90;;;;;;5076120;28;20021;-68
2023/10/01 03:59:51;;;;;;;11.02;8.07;;;13.70;99.90;;;;;;5075907;28;20031;-68
2023/10/01 04:02:49;;;;;;;11.85;7.18;;;13.70;99.90;;;;;;5076298;28;20106;-68
2023/10/01 04:05:05;;;;;;;13.98;7.43;;;13.80;99.90;;;;;;5075963;28;20034;-68
2023/10/01 04:07:45;;;;;;;12.63;7.60;;;13.80;99.90;;;;;;5076699;28;20386;-68
2023/10/01 04:13:13;;;;;;;13.60;7.18;;;13.80;99.90;;;;;;5071441;28;20433;-68
2023/10/01 04:15:41;;;;;;;13.77;6.95;;;13.80;99.90;;;;;;5071485;28;20025;-68
2023/10/01 04:23:40;;;;;;;13.43;7.40;;;13.80;99.90;;;;;;5111973;27;20385;-68
2023/10/01 04:26:13;;;;;;;12.75;7.32;;;13.80;99.90;;;;;;5111974;28;20080;-69
2023/10/01 04:28:44;;;;;;;12.20;6.90;;;13.80;99.90;;;;;;5112088;28;20140;-68
2023/10/01 04:31:14;;;;;;;13.70;7.25;;;13.80;99.90;;;;;;5111934;28;20261;-70
2023/10/01 04:33:43;;;;;;;12.35;7.18;;;13.80;99.90;;;;;;5111453;28;20070;-68
2023/10/01 04:36:11;;;;;;;12.00;7.13;;;13.70;99.90;;;;;;5111669;28;20531;-68
2023/10/01 04:38:38;;;;;;;15.68;6.88;;;13.70;99.90;;;;;;5111453;28;20032;-69
2023/10/01 04:41:04;;;;;;;11.40;6.80;;;13.80;99.90;;;;;;5111292;28;20537;-69
2023/10/01 04:43:34;;;;;;;15.02;7.22;;;13.70;99.90;;;;;;5110891;28;20468;-69
2023/10/01 04:46:04;;;;;;;12.35;6.68;;;13.70;99.90;;;;;;5111742;28;20054;-68
2023/10/01 04:48:29;;;;;;;10.10;6.43;;;13.70;99.90;;;;;;5091276;28;20032;-68
2023/10/01 04:50:55;;;;;;;12.82;7.20;;;13.80;99.90;;;;;;5090241;28;20012;-68
2023/10/01 04:53:25;;;;;;;8.98;6.63;;;13.80;99.90;;;;;;5091337;28;20036;-69
2023/10/01 04:56:00;;;;;;;14.57;6.88;;;13.70;99.90;;;;;;5090846;28;20032;-68
2023/10/01 04:58:29;;;;;;;10.85;6.40;;;13.80;99.90;;;;;;5090718;28;20190;-68
2023/10/01 05:00:56;;;;;;;13.43;6.55;;;13.80;99.90;;;;;;5090811;28;20032;-69
2023/10/01 05:03:38;;;;;;;11.50;6.70;;;13.80;99.90;;;;;;5090318;28;20040;-69
2023/10/01 05:06:08;;;;;;;12.65;6.82;;;13.80;99.90;;;;;;5090779;28;20378;-68
2023/10/01 05:08:38;;;;;;;11.27;6.07;;;13.80;99.90;;;;;;5090949;28;20047;-68
2023/10/01 05:11:10;;;;;;;10.60;6.40;;;13.80;99.90;;;;;;5090545;28;20028;-68
2023/10/01 05:13:39;;;;;;;10.05;6.38;;;13.80;99.90;;;;;;5090556;28;20386;-68
2023/10/01 05:16:06;;;;;;;9.75;5.72;;;13.80;99.90;;;;;;5090583;28;20059;-69
2023/10/01 05:18:33;;;;;;;12.13;6.82;;;13.90;99.90;;;;;;5090365;28;20028;-68
2023/10/01 05:20:59;;;;;;;9.95;6.40;;;13.80;99.60;;;;;;5090131;28;20432;-68
2023/10/01 05:23:26;;;;;;;9.35;5.82;;;13.80;95.10;;;;;;5089441;28;20036;-68
2023/10/01 05:25:51;;;;;;;10.35;6.18;;;13.90;96.40;;;;;;5089635;28;20027;-68
2023/10/01 05:28:31;;;;;;;12.32;6.50;;;13.80;94.20;;;;;;5090165;28;20020;-68
2023/10/01 05:30:58;;;;;;;11.77;6.20;;;13.80;92.70;;;;;;5090512;28;20025;-68
2023/10/01 05:33:24;;;;;;;10.20;6.20;;;13.90;91.60;;;;;;5085329;28;20124;-68
2023/10/01 05:35:54;;;;;;;13.35;5.88;;;13.90;87.60;;;;;;5077138;28;20020;-68
2023/10/01 05:38:20;;;;;;;9.60;6.40;;;13.90;83.60;;;;;;5076494;28;20024;-68
2023/10/01 05:40:52;;;;;;;9.43;6.45;;;13.90;82.60;;;;;;5076903;28;20082;-68
2023/10/01 05:43:18;;;;;;;11.77;6.30;;;13.90;83.60;;;;;;5076321;28;20025;-68
2023/10/01 05:45:50;;;;;;;11.50;6.60;;;13.90;83.50;;;;;;5076396;28;20103;-68
2023/10/01 05:48:19;;;;;;;13.35;6.18;;;13.90;84.90;;;;;;5076695;28;20374;-68
2023/10/01 05:50:47;;;;;;;11.27;6.32;;;13.90;86.80;;;;;;5076321;28;20370;-68
2023/10/01 05:53:13;;;;;;;12.25;6.38;;;13.90;88.00;;;;;;5075992;28;20429;-69
2023/10/01 05:55:41;;;;;;;10.20;6.03;;;14.00;86.20;;;;;;5076488;28;20471;-69
2023/10/01 05:58:13;;;;;;;10.25;5.63;;;14.00;76.90;;;;;;5076462;28;20111;-68
2023/10/01 06:00:45;;;;;;;10.82;6.15;;;14.00;65.50;;;;;;5075802;28;20048;-68
2023/10/01 06:03:13;;;;;;;11.98;6.28;;;14.00;66.70;;;;;;5076129;28;20029;-69
2023/10/01 06:05:43;;;;;;;11.45;6.70;;;14.00;76.60;;;;;;5076167;28;20027;-69
2023/10/01 06:08:17;;;;;;;13.18;6.90;;;14.10;64.00;;;;;;5076347;28;20459;-68
2023/10/01 06:10:59;;;;;;;10.98;6.45;;;14.10;69.40;;;;;;5076381;28;20031;-68
2023/10/01 06:13:28;;;;;;;13.65;6.38;;;14.10;57.90;;;;;;5075978;28;20025;-68
2023/10/01 06:15:57;;;;;;;11.55;6.10;;;14.20;50.90;;;;;;5075878;28;20041;-68
2023/10/01 06:18:24;;;;;;;12.27;6.57;;;14.20;51.60;;;;;;5075596;28;20036;-69
2023/10/01 06:20:53;;;;;;;11.82;6.45;;;14.20;47.30;;;;;;5076126;28;20025;-68
2023/10/01 06:23:20;;;;;;;10.98;5.60;;;14.20;42.50;;;;;;5074835;28;20040;-68
2023/10/01 06:25:51;;;;;;;12.90;6.65;;;14.30;42.70;;;;;;5075699;28;20044;-68
2023/10/01 06:28:20;;;;;;;10.32;5.97;;;14.30;36.30;;;;;;5075291;28;20111;-68
2023/10/01 06:30:46;;;;;;;12.73;6.45;;;14.40;33.30;;;;;;5075828;28;20024;-68
2023/10/01 06:33:29;;;;;;;8.98;5.75;;;14.50;34.10;;;;;;5075640;28;20570;-68
2023/10/01 06:36:26;;;;;;;9.80;5.82;;;14.50;37.80;;;;;;5075413;28;20029;-69
2023/10/01 06:38:45;;;;;;;8.82;5.57;;;14.60;32.80;;;;;;5074665;28;20497;-68
2023/10/01 06:41:16;;;;;;;11.10;5.70;;;14.70;21.30;;;;;;5075358;28;20024;-68
2023/10/01 06:43:48;;;;;;;12.52;5.55;;;15.00;12.20;;;;;;5075258;28;20024;-68
2023/10/01 06:46:16;;;;;;;9.77;5.72;;;15.30;1.00;;;;;;5074348;28;20024;-69
2023/10/01 06:48:42;;;;;;;11.77;6.07;;;15.60;1.00;;;;;;5075325;28;20429;-68
2023/10/01 06:51:08;;;;;;;8.75;6.68;;;15.70;1.00;;;;;;5074281;28;20056;-68
2023/10/01 06:53:53;;;;;;;10.55;6.63;;;15.70;1.00;;;;;;5075155;28;20056;-68
2023/10/01 06:56:20;;;;;;;14.25;7.03;;;15.70;1.00;;;;;;5074161;28;20115;-69
2023/10/01 06:59:18;;;;;;;14.88;6.57;;;15.70;1.00;;;;;;5074848;28;20055;-68
2023/10/01 07:01:42;;;;;;;13.18;6.55;;;15.70;1.00;;;;;;5074141;28;20035;-69
2023/10/01 07:04:08;;;;;;;11.30;6.40;;;15.60;1.00;;;;;;5073991;28;20017;-69
2023/10/01 07:06:36;;;;;;;11.63;6.93;;;15.70;1.00;;;;;;5074933;28;20020;-69
2023/10/01 07:09:02;;;;;;;11.13;5.97;;;15.70;1.00;;;;;;5074487;28;20020;-68
2023/10/01 07:11:29;;;;;;;11.07;5.97;;;15.80;1.00;;;;;;5075085;28;20404;-69
2023/10/01 07:13:55;;;;;;;10.57;5.53;;;15.90;1.00;;;;;;5074239;28;20111;-68
2023/10/01 07:16:39;;;;;;;16.08;6.68;;;15.90;1.00;;;;;;5074308;28;20028;-68
2023/10/01 07:19:11;;;;;;;;;;;16.00;1.00;;;;;;5075141;28;20025;-68
2023/10/01 07:21:45;;;;;;;11.98;5.90;;;16.10;1.00;;;;;;5074650;28;20356;-68
2023/10/01 07:24:11;;;;;;;14.90;6.60;;;16.30;1.00;;;;;;5074740;28;20029;-69
2023/10/01 07:26:40;;;;;;;11.73;5.97;;;16.30;1.00;;;;;;5074539;28;20116;-69
2023/10/01 07:29:06;;;;;;;14.07;6.57;;;16.40;1.00;;;;;;5074364;28;20028;-69
2023/10/01 07:31:35;;;;;;;10.73;5.85;;;17.40;99.90;;;;;;5073927;28;20033;-69
2023/10/01 07:34:12;;;;;;;8.98;5.40;;;18.30;1.00;;;;;;5074839;28;20064;-69
2023/10/01 07:36:39;;;;;;;12.32;6.60;;;18.40;1.00;;;;;;5074659;28;20090;-69
2023/10/01 07:39:05;;;;;;;11.40;6.57;;;19.10;99.90;;;;;;5074434;28;20430;-69
2023/10/01 07:41:38;;;;;;;15.65;6.45;;;19.40;99.90;;;;;;5074243;28;20093;-69
2023/10/01 07:44:08;;;;;;;13.57;6.40;;;20.20;99.90;;;;;;5074648;28;20028;-69
2023/10/01 07:46:36;;;;;;;12.48;6.63;;;20.50;1.00;;;;;;5074531;28;20024;-70
2023/10/01 07:49:03;;;;;;;13.82;6.53;;;20.70;99.90;;;;;;5074066;28;20075;-69
2023/10/01 07:51:35;;;;;;;14.20;6.78;;;20.50;1.00;;;;;;5074340;28;20032;-72
2023/10/01 07:54:03;;;;;;;13.15;6.63;;;20.70;1.00;;;;;;5073910;28;20029;-76
2023/10/01 07:56:28;;;;;;;12.13;6.05;;;20.70;99.90;;;;;;5073787;28;20028;-70
2023/10/01 07:59:15;;;;;;;11.20;6.28;;;20.40;99.90;;;;;;5073984;28;20078;-70
2023/10/01 08:01:42;;;;;;;14.27;7.03;;;20.70;99.90;;;;;;5073170;28;20028;-69
2023/10/01 08:04:38;;;;;;;15.90;7.60;;;21.00;47.70;;;;;;5073961;28;20480;-69
2023/10/01 08:07:03;;;;;;;13.13;7.32;;;20.50;63.60;;;;;;5073191;28;20025;-70
2023/10/01 08:09:31;;;;;;;13.77;7.15;;;20.80;1.00;;;;;;5074266;28;20021;-75
2023/10/01 08:12:05;;;;;;;15.82;7.35;;;20.50;55.00;;;;;;5072933;28;20031;-69
2023/10/01 08:14:34;;;;;;;13.88;7.13;;;20.70;22.00;;;;;;5073621;28;20031;-69
2023/10/01 08:17:02;;;;;;;14.13;7.63;;;20.60;99.90;;;;;;5074097;28;20025;-70
2023/10/01 08:20:14;;;;;;;18.33;8.13;;;20.90;1.00;;;;;;5074133;28;20024;-70
2023/10/01 08:22:15;;;;;;;13.93;7.72;;;21.00;1.00;;;;;;5072730;28;20507;-69
2023/10/01 08:24:45;;;;;;;14.18;7.20;;;21.50;1.00;;;;;;5073014;28;20021;-70
2023/10/01 08:27:14;;;;;;;16.75;8.15;;;21.20;1.00;;;;;;5072796;28;20063;-70
2023/10/01 08:29:59;;;;;;;14.40;8.05;;;21.50;99.90;;;;;;5073429;28;20024;-70
2023/10/01 08:32:38;;;;;;;15.95;7.75;;;21.70;99.90;;;;;;5073701;28;20028;-69
2023/10/01 08:35:08;;;;;;;15.35;8.10;;;21.90;21.60;;;;;;5073400;28;20025;-70
2023/10/01 08:37:37;;;;;;;15.50;8.15;;;21.60;99.90;;;;;;5073296;28;20051;-69
2023/10/01 08:40:13;;;;;;;14.55;7.93;;;21.20;1.00;;;;;;5073040;28;20040;-69
2023/10/01 08:42:44;;;;;;;15.52;7.97;;;21.20;1.00;;;;;;5073396;28;20505;-69
2023/10/01 08:45:12;;;;;;;16.70;8.05;;;21.10;99.90;;;;;;5073831;28;20059;-70
2023/10/01 08:47:38;;;;;;;16.83;8.20;;;21.40;1.00;;;;;;5073269;28;20031;-69
2023/10/01 08:50:40;;;;;;;19.30;8.50;;;21.60;99.90;;;;;;5073201;28;20031;-69
2023/10/01 08:52:55;;;;;;;14.63;7.63;;;21.50;99.90;;;;;;5072744;28;20052;-70
2023/10/01 08:55:23;;;;;;;14.90;7.82;;;22.30;99.90;;;;;;5073374;28;20028;-70
2023/10/01 08:57:53;;;;;;;12.60;7.55;;;22.60;99.90;;;;;;5073750;28;20029;-69
2023/10/01 09:00:23;;;;;;;12.77;7.85;;;23.20;99.90;;;;;;5073069;28;20024;-69
2023/10/01 09:02:51;;;;;;;15.60;8.00;;;22.90;99.90;;;;;;5072630;28;20127;-70
2023/10/01 09:05:27;;;;;;;17.23;8.93;;;23.20;99.90;;;;;;5073560;28;20039;-70
2023/10/01 09:08:14;;;;;;;19.50;9.15;;;23.10;1.00;;;;;;5073146;28;20115;-70
2023/10/01 09:10:55;;;;;;;18.10;8.80;;;22.40;99.90;;;;;;5075634;28;20032;-69
2023/10/01 09:13:21;;;;;;;12.98;7.85;;;22.30;1.00;;;;;;5076744;28;20024;-70
2023/10/01 09:15:47;;;;;;;18.92;9.40;;;22.40;99.90;;;;;;5077120;28;20032;-69
2023/10/01 09:18:20;;;;;;;16.40;8.38;;;22.40;53.80;;;;;;5076789;28;20028;-70
2023/10/01 09:21:20;;;;;;;15.00;8.60;;;22.60;1.00;;;;;;5076983;28;20024;-69
2023/10/01 09:23:54;;;;;;;16.90;8.45;;;22.90;99.90;;;;;;5075813;28;20323;-70
2023/10/01 09:26:42;;;;;;;18.27;8.95;;;23.30;99.90;;;;;;5076687;28;20405;-70
2023/10/01 09:29:24;;;;;;;15.48;8.45;;;23.00;99.90;;;;;;5076776;28;20036;-70
2023/10/01 09:31:52;;;;;;;17.00;8.75;;;22.90;1.00;;;;;;5076510;28;20027;-76
2023/10/01 09:34:34;;;;;;;16.27;8.65;;;23.20;99.90;;;;;;5077075;28;20063;-70
2023/10/01 09:37:12;;;;;;;16.95;9.07;;;23.10;99.90;;;;;;5076592;28;20121;-71
2023/10/01 09:39:41;;;;;;;17.75;8.98;;;22.90;1.00;;;;;;5076530;28;20061;-71
2023/10/01 09:42:22;;;;;;;17.92;8.82;;;23.20;1.00;;;;;;5076053;28;20385;-76
2023/10/01 09:44:50;;;;;;;17.83;9.15;;;24.10;1.00;;;;;;5075706;28;20032;-70
2023/10/01 09:47:16;;;;;;;20.00;9.38;;;23.10;99.90;;;;;;5076760;28;20025;-76
2023/10/01 09:49:47;;;;;;;15.43;8.82;;;22.60;4.40;;;;;;5076695;28;20111;-70
2023/10/01 09:52:26;;;;;;;15.57;8.63;;;23.00;1.00;;;;;;5076670;28;20417;-70
2023/10/01 09:55:05;;;;;;;20.77;9.30;;;23.60;99.90;;;;;;5076602;28;20028;-70
2023/10/01 09:57:35;;;;;;;16.33;8.50;;;23.30;99.90;;;;;;5076296;28;20032;-75
2023/10/01 10:00:17;;;;;;;16.85;8.65;;;22.70;1.00;;;;;;5076223;28;20024;-70
2023/10/01 10:02:51;;;;;;;17.88;9.18;;;23.00;99.90;;;;;;5076247;28;20032;-72
2023/10/01 10:05:24;;;;;;;18.10;9.25;;;22.90;1.00;;;;;;5076229;28;20067;-71
2023/10/01 10:07:53;;;;;;;18.52;8.65;;;23.00;99.90;;;;;;5075977;28;20035;-75
2023/10/01 10:10:24;;;;;;;15.75;8.38;;;23.50;1.00;;;;;;5076199;28;20374;-70
2023/10/01 10:12:53;;;;;;;19.00;8.32;;;23.80;99.90;;;;;;5075856;28;20024;-70
2023/10/01 10:15:55;;;;;;;20.15;8.70;;;24.40;1.00;;;;;;5075550;28;20540;-70
2023/10/01 10:18:23;;;;;;;18.95;8.68;;;24.30;1.00;;;;;;5076170;28;20033;-71
2023/10/01 10:21:03;;;;;;;15.65;8.50;;;23.80;1.00;;;;;;5076073;28;20106;-70
2023/10/01 10:23:29;;;;;;;16.42;8.32;;;24.00;23.90;;;;;;5074822;28;20051;-70
2023/10/01 10:26:12;;;;;;;16.25;8.23;;;23.60;56.50;;;;;;5076021;28;20375;-71
2023/10/01 10:28:55;;;;;;;17.33;8.52;;;23.40;1.00;;;;;;5075407;28;20066;-70
2023/10/01 10:31:29;;;;;;;18.25;8.63;;;23.10;99.90;;;;;;5075647;28;20029;-70
2023/10/01 10:34:29;;;;;;;18.13;8.82;;;23.30;99.90;;;;;;5075257;28;20393;-70
2023/10/01 10:36:55;;;;;;;21.90;9.05;;;23.50;99.90;;;;;;5075460;28;20028;-70
2023/10/01 10:42:39;;;;;;;17.67;9.27;;;24.00;99.90;;;;;;5071352;28;20938;-70
2023/10/01 10:45:26;;;;;;;16.95;9.18;;;23.40;99.90;;;;;;5071143;28;20021;-70
2023/10/01 10:47:59;;;;;;;17.88;8.93;;;24.20;1.00;;;;;;5070446;28;20033;-69
2023/10/01 10:50:48;;;;;;;16.50;8.68;;;24.00;99.90;;;;;;5071255;28;20056;-69
2023/10/01 10:53:20;;;;;;;18.30;9.07;;;23.60;99.90;;;;;;5070508;28;20029;-70
2023/10/01 10:56:04;;;;;;;16.83;8.80;;;24.10;99.90;;;;;;5071281;28;20020;-69
2023/10/01 10:58:41;;;;;;;18.48;8.82;;;24.50;1.00;;;;;;5070860;28;20031;-69
2023/10/01 11:01:23;;;;;;;18.02;8.75;;;24.10;99.90;;;;;;5071088;28;20497;-70
2023/10/01 11:03:51;;;;;;;19.85;9.32;;;24.20;1.00;;;;;;5070471;28;20021;-69
2023/10/01 11:06:29;;;;;;;16.17;8.75;;;24.50;1.00;;;;;;5070879;28;20029;-69
2023/10/01 11:08:56;;;;;;;17.52;8.77;;;24.20;1.00;;;;;;5070779;28;20502;-69
2023/10/01 11:11:28;;;;;;;17.38;8.73;;;23.60;99.90;;;;;;5070786;28;20364;-69
2023/10/01 11:14:01;;;;;;;19.67;8.70;;;23.70;16.30;;;;;;5070400;28;20059;-69
2023/10/01 11:16:36;;;;;;;15.63;8.85;;;23.30;99.90;;;;;;5070821;28;20072;-69
2023/10/01 11:19:18;;;;;;;16.45;9.35;;;23.50;99.90;;;;;;5070800;28;20090;-70
2023/10/01 11:21:58;;;;;;;18.60;9.38;;;23.70;3.30;;;;;;5070386;28;20039;-70
2023/10/01 11:24:34;;;;;;;16.73;8.55;;;23.50;1.00;;;;;;5070528;28;20518;-70
2023/10/01 11:27:53;;;;;;;18.88;8.70;;;23.50;1.00;;;;;;5070166;28;20532;-69
2023/10/01 11:30:27;;;;;;;17.05;8.80;;;23.00;1.00;;;;;;5069607;28;20017;-69
2023/10/01 11:36:21;;;;;;;17.90;9.70;;;23.30;1.00;;;;;;5069796;28;20031;-70
2023/10/01 11:38:36;;;;;;;17.42;9.20;;;23.60;99.90;;;;;;5069385;28;20104;-70
2023/10/01 11:41:09;;;;;;;16.60;8.70;;;23.70;99.90;;;;;;5069419;28;20045;-69
2023/10/01 11:46:19;;;;;;;16.73;8.77;;;23.40;1.00;;;;;;5091532;27;20390;-70
2023/10/01 11:49:10;;;;;;;17.95;8.65;;;23.60;99.90;;;;;;5091716;28;20059;-70
2023/10/01 11:51:45;;;;;;;19.13;9.15;;;23.80;97.70;;;;;;5091711;28;20082;-69
2023/10/01 11:54:13;;;;;;;15.95;8.93;;;23.50;99.90;;;;;;5091533;28;20120;-69
2023/10/01 11:56:44;;;;;;;17.23;9.57;;;23.30;99.90;;;;;;5091100;28;20030;-69
2023/10/01 11:59:20;;;;;;;16.98;9.20;;;23.20;99.90;;;;;;5091578;28;20032;-70
2023/10/01 12:01:50;;;;;;;19.90;9.45;;;23.10;99.90;;;;;;5091548;28;20028;-69
2023/10/01 12:04:21;;;;;;;17.98;9.52;;;22.90;52.60;;;;;;5090467;28;20050;-70
2023/10/01 12:06:49;;;;;;;17.40;8.95;;;22.80;99.90;;;;;;5091131;28;20028;-69
2023/10/01 12:09:15;;;;;;;18.25;8.65;;;22.60;99.90;;;;;;5091066;28;20082;-69
2023/10/01 12:11:40;;;;;;;17.88;8.98;;;22.80;1.00;;;;;;5091292;28;20496;-70
2023/10/01 12:14:08;;;;;;;17.83;9.90;;;23.00;99.90;;;;;;5090980;28;20032;-69
2023/10/01 12:16:34;;;;;;;17.02;9.13;;;23.00;92.50;;;;;;5090885;28;20036;-70
2023/10/01 12:19:32;;;;;;;17.63;9.18;;;23.20;99.90;;;;;;5091228;28;20028;-74
2023/10/01 12:21:48;;;;;;;18.05;9.43;;;23.10;1.00;;;;;;5089984;28;20542;-69
2023/10/01 12:24:15;;;;;;;19.45;9.40;;;23.20;99.90;;;;;;5089755;28;20020;-70
2023/10/01 12:26:43;;;;;;;17.27;8.90;;;23.30;49.20;;;;;;5090717;28;20119;-74
2023/10/01 12:29:11;;;;;;;15.82;8.43;;;23.60;1.00;;;;;;5090575;28;20477;-69
2023/10/01 12:31:37;;;;;;;17.02;8.63;;;23.70;1.00;;;;;;5090211;28;20047;-70
2023/10/01 12:34:03;;;;;;;18.40;10.20;;;24.10;99.90;;;;;;5090699;28;20060;-69
2023/10/01 12:36:32;;;;;;;16.67;9.00;;;24.30;1.00;;;;;;5090199;28;20478;-70
2023/10/01 12:44:28;;;;;;;17.98;10.52;;;23.90;99.90;;;;;;5070897;28;20024;-69
2023/10/01 12:46:55;;;;;;;17.60;9.13;;;23.80;99.90;;;;;;5071494;28;20032;-69
2023/10/01 12:49:21;;;;;;;17.35;9.88;;;23.70;99.90;;;;;;5070862;28;20082;-69
2023/10/01 12:51:48;;;;;;;23.58;10.02;;;23.70;1.70;;;;;;5071152;28;20029;-69
2023/10/01 12:54:18;;;;;;;16.48;9.45;;;23.60;99.90;;;;;;5071429;28;20028;-69
2023/10/01 12:56:48;;;;;;;19.92;9.55;;;23.50;1.00;;;;;;5071361;28;20029;-69
2023/10/01 12:59:18;;;;;;;18.40;9.77;;;23.20;1.00;;;;;;5070585;28;20028;-69
2023/10/01 13:01:50;;;;;;;21.55;10.50;;;23.20;1.00;;;;;;5070329;28;20079;-69
2023/10/01 13:04:33;;;;;;;20.10;9.73;;;23.30;1.00;;;;;;5070602;28;20032;-69
2023/10/01 13:07:03;;;;;;;20.05;9.90;;;23.20;1.00;;;;;;5070860;28;20025;-69
2023/10/01 13:12:26;;;;;;;18.50;9.60;;;23.50;1.00;;;;;;5112009;27;20380;-69
2023/10/01 13:17:43;;;;;;;21.30;10.10;;;23.40;1.00;;;;;;5110871;28;20046;-69
2023/10/01 13:22:59;;;;;;;21.42;10.20;;;23.60;99.90;;;;;;5110900;28;20486;-69
2023/10/01 13:25:26;;;;;;;20.98;10.02;;;23.80;1.00;;;;;;5111987;28;20024;-70
2023/10/01 13:28:01;;;;;;;20.25;10.20;;;23.60;99.90;;;;;;5111851;28;20020;-69
2023/10/01 13:30:31;;;;;;;21.15;9.40;;;23.60;99.90;;;;;;5111064;28;20505;-69
2023/10/01 13:33:10;;;;;;;20.58;10.35;;;23.60;99.90;;;;;;5110992;28;20031;-69
2023/10/01 13:35:36;;;;;;;21.02;10.57;;;23.60;1.00;;;;;;5111377;28;20024;-69